« Back
NWS Peachtree City, Ga » Text Product » AHN Terminal Aerodrome Forecast


Printer-friendly Version
Current Version              Previous Versions:   1  2  3  4  5  6  7  8  9  

Terminal Aerodrome Forecast

065
FTUS42 KFFC 152000 AAA
TAFAHN
TAF AMD
KAHN 152000Z 1520/1618 29013G25KT P6SM SCT035
      TEMPO 1520/1522 BKN035
     FM160200 34010G17KT P6SM SKC
     FM160700 01005KT P6SM SKC
     FM161100 08010KT P6SM SKC
     FM161500 10012G20KT P6SM SCT250=



USA.gov is the U.S. government's official web portal to all federal, state and local government web resources and services.